MRPV Airport Information

Runway Information
Runway 09 Length 5250 ft width 60 ft Elevation 3238 ft Threshold 200 ft Heading 95
Runway 27 Length 5250 ft Width 60 ft Elevation 3287 ft Threshold N/A Heading 275
Airport Frequencies
Type GND Name GND Frequency 121.7 MHZ
Type RDO Name COCO RDO Frequency 126.8 MHZ
Type TWR Name PAVAS TWR Frequency 118.3 MHZ
Airport Navaids
Airport Weather Information & NOTAM
ADDS - METARS form results

(0248 UTC 01 December 2022)
Data provider http://aviationweather.gov/metar/data/
 
Forecast for: COR
Text: TAF COR MRPV 302300Z 0100/0124 10010KT 9999 FEW040 BKN140 TX26/0117Z TN19/0110Z
Forecast period: 0000 UTC 01 December 2022 to 0000 UTC 02 December 2022
Forecast type: FROM: standard forecast or significant change
Winds: from the E (100 degrees) at 12 MPH (10 knots; 5.1 m/s)
Visibility: 6 or more miles (10+ km)
Ceiling: 14000 feet AGL
Clouds: few clouds at 4000 feet AGL
broken clouds at 14000 feet AGL
Weather: no significant weather forecast for this period
Text:
Forecast period: 2000 to 2300 UTC 30 November 2022
Forecast type: TEMPORARY: The following changes expected for less than half the time period
Winds: variable direction winds at 2 MPH (2 knots; 1.0 m/s)
Visibility: missing
Ceiling: unknown
Clouds: missing
Weather: RA  (moderate rain)